Time;durP1;ratioP1;P1;durP2;ratioP2;P2;SDS_P1;SDS_P2;PMS_P1;PMS_P2;Temp;Humidity;BMP_temperature;BMP_pressure;BME280_temperature;BME280_humidity;BME280_pressure;Samples;Min_cycle;Max_cycle;Signal;HPM_P1;HPM_P2
2023/04/06 00:02:10;;;;;;;;;;;18.70;40.50;;;;;;5022170;28;19959;-73
2023/04/06 00:04:35;;;;;;;;;;;18.70;39.80;;;;;;5024051;28;20010;-73
2023/04/06 00:07:01;;;;;;;;;;;18.70;40.10;;;;;;5007704;28;19913;-73
2023/04/06 00:09:26;;;;;;;;;;;18.60;40.00;;;;;;5008947;28;19921;-73
2023/04/06 00:11:51;;;;;;;;;;;18.60;39.90;;;;;;5008291;28;19932;-73
2023/04/06 00:14:17;;;;;;;;;;;18.60;39.70;;;;;;5008125;28;20012;-73
2023/04/06 00:16:42;;;;;;;;;;;18.60;40.20;;;;;;5009276;28;19914;-73
2023/04/06 00:19:08;;;;;;;;;;;18.60;40.00;;;;;;5015969;28;20032;-73
2023/04/06 00:21:33;;;;;;;;;;;18.60;40.00;;;;;;5009880;28;19917;-73
2023/04/06 00:23:59;;;;;;;;;;;18.50;39.90;;;;;;5020063;28;19917;-73
2023/04/06 00:26:24;;;;;;;;;;;18.50;40.00;;;;;;5011005;28;20389;-73
2023/04/06 00:28:52;;;;;;;;;;;18.50;40.10;;;;;;5004066;28;19914;-73
2023/04/06 00:31:17;;;;;;;;;;;18.50;40.20;;;;;;5009431;28;20000;-73
2023/04/06 00:33:42;;;;;;;;;;;18.50;40.00;;;;;;5009097;28;20008;-73
2023/04/06 00:36:08;;;;;;;;;;;18.40;40.00;;;;;;5007883;28;20302;-73
2023/04/06 00:38:33;;;;;;;;;;;18.40;40.00;;;;;;4995856;28;19963;-72
2023/04/06 00:40:59;;;;;;;;;;;18.40;40.10;;;;;;4995298;28;19920;-73
2023/04/06 00:43:24;;;;;;;;;;;18.40;40.00;;;;;;5014613;28;19917;-73
2023/04/06 00:45:50;;;;;;;;;;;18.40;40.00;;;;;;5011812;28;19913;-73
2023/04/06 00:48:15;;;;;;;;;;;18.40;40.00;;;;;;4997716;28;20061;-73
2023/04/06 00:50:41;;;;;;;;;;;18.40;40.10;;;;;;5023533;28;19958;-73
2023/04/06 00:53:06;;;;;;;;;;;18.40;40.10;;;;;;5012757;28;19914;-73
2023/04/06 00:55:32;;;;;;;;;;;18.40;40.20;;;;;;5025147;28;19956;-73
2023/04/06 00:57:58;;;;;;;;;;;18.40;40.10;;;;;;4995149;28;19910;-73
2023/04/06 01:00:23;;;;;;;;;;;18.30;40.10;;;;;;5029628;28;19917;-73
2023/04/06 01:02:49;;;;;;;;;;;18.30;40.70;;;;;;5009039;28;19921;-73
2023/04/06 01:05:14;;;;;;;;;;;18.30;40.20;;;;;;5010443;28;19960;-73
2023/04/06 01:07:40;;;;;;;;;;;18.30;40.20;;;;;;5011636;28;20363;-73
2023/04/06 01:10:05;;;;;;;;;;;18.30;40.10;;;;;;5011205;28;19923;-73
2023/04/06 01:12:31;;;;;;;;;;;18.30;40.10;;;;;;5010860;28;19966;-73
2023/04/06 01:14:56;;;;;;;;;;;18.30;40.00;;;;;;5008208;28;19920;-73
2023/04/06 01:17:22;;;;;;;;;;;18.30;39.90;;;;;;5013118;28;19972;-73
2023/04/06 01:19:49;;;;;;;;;;;18.30;40.00;;;;;;5011654;28;19921;-73
2023/04/06 01:22:15;;;;;;;;;;;18.40;40.10;;;;;;4995194;28;20058;-73
2023/04/06 01:24:41;;;;;;;;;;;18.40;40.10;;;;;;5025776;28;20005;-73
2023/04/06 01:27:06;;;;;;;;;;;18.50;40.00;;;;;;5010984;28;20008;-73
2023/04/06 01:29:32;;;;;;;;;;;18.60;39.70;;;;;;5010556;28;19909;-73
2023/04/06 01:31:57;;;;;;;;;;;18.70;39.50;;;;;;5017622;28;19920;-73
2023/04/06 01:34:22;;;;;;;;;;;18.80;39.40;;;;;;5028313;28;19913;-73
2023/04/06 01:36:48;;;;;;;;;;;18.90;39.20;;;;;;5016028;28;19923;-73
2023/04/06 01:39:13;;;;;;;;;;;19.00;39.00;;;;;;5012204;28;19924;-73
2023/04/06 01:41:39;;;;;;;;;;;19.00;38.80;;;;;;4999461;28;19910;-73
2023/04/06 01:44:04;;;;;;;;;;;19.10;39.20;;;;;;5012809;28;19913;-73
2023/04/06 01:46:30;;;;;;;;;;;19.10;38.90;;;;;;5010245;28;19917;-73
2023/04/06 01:48:55;;;;;;;;;;;19.10;38.70;;;;;;5010384;28;20303;-73
2023/04/06 01:51:21;;;;;;;;;;;19.00;38.90;;;;;;5010440;28;20337;-73
2023/04/06 01:53:48;;;;;;;;;;;19.10;38.80;;;;;;5010923;28;20282;-73
2023/04/06 01:56:13;;;;;;;;;;;19.00;38.70;;;;;;5019862;28;19958;-72
2023/04/06 01:58:39;;;;;;;;;;;19.10;38.80;;;;;;5015225;28;19922;-73
2023/04/06 02:01:04;;;;;;;;;;;19.10;38.70;;;;;;5008372;28;19917;-73
2023/04/06 02:03:31;;;;;;;;;;;19.10;38.60;;;;;;5023703;27;20239;-73
2023/04/06 02:05:56;;;;;;;;;;;19.20;38.70;;;;;;5021548;28;19914;-73
2023/04/06 02:08:22;;;;;;;;;;;19.20;38.60;;;;;;5011089;28;19940;-73
2023/04/06 02:10:47;;;;;;;;;;;19.30;38.60;;;;;;5009374;28;19910;-73
2023/04/06 02:13:13;;;;;;;;;;;19.30;38.40;;;;;;5009964;28;19917;-72
2023/04/06 02:15:38;;;;;;;;;;;19.30;38.30;;;;;;5002239;28;20434;-72
2023/04/06 02:18:04;;;;;;;;;;;19.30;38.20;;;;;;5010683;28;20290;-72
2023/04/06 02:20:29;;;;;;;;;;;19.40;38.10;;;;;;5010303;28;19913;-73
2023/04/06 02:22:56;;;;;;;;;;;19.40;38.10;;;;;;5006035;28;19920;-73
2023/04/06 02:25:21;;;;;;;;;;;19.40;38.00;;;;;;5010120;28;19914;-73
2023/04/06 02:27:47;;;;;;;;;;;19.40;37.90;;;;;;4993972;28;19914;-73
2023/04/06 02:30:12;;;;;;;;;;;19.40;38.00;;;;;;5025136;28;19913;-73
2023/04/06 02:32:38;;;;;;;;;;;19.30;38.10;;;;;;5031862;27;19913;-73
2023/04/06 02:35:04;;;;;;;;;;;19.30;38.20;;;;;;5022632;28;19917;-73
2023/04/06 02:37:29;;;;;;;;;;;19.20;38.20;;;;;;5010009;28;20371;-73
2023/04/06 02:39:55;;;;;;;;;;;19.20;38.30;;;;;;5005098;28;19920;-73
2023/04/06 02:42:20;;;;;;;;;;;19.10;38.20;;;;;;5011982;28;19957;-73
2023/04/06 02:44:46;;;;;;;;;;;19.10;38.20;;;;;;5012339;28;19936;-73
2023/04/06 02:47:11;;;;;;;;;;;19.20;38.60;;;;;;5006309;28;19957;-73
2023/04/06 02:49:37;;;;;;;;;;;19.10;38.50;;;;;;5015021;28;19966;-73
2023/04/06 02:52:02;;;;;;;;;;;19.00;38.40;;;;;;5004066;28;19925;-73
2023/04/06 02:54:28;;;;;;;;;;;19.00;38.30;;;;;;5010661;28;20290;-73
2023/04/06 02:56:53;;;;;;;;;;;19.00;38.30;;;;;;5018257;28;20491;-73
2023/04/06 02:59:19;;;;;;;;;;;19.10;38.20;;;;;;5027693;28;20344;-73
2023/04/06 03:01:44;;;;;;;;;;;19.10;38.20;;;;;;4999880;27;19932;-73
2023/04/06 03:04:10;;;;;;;;;;;19.10;38.20;;;;;;5009532;28;20000;-73
2023/04/06 03:06:36;;;;;;;;;;;19.10;38.10;;;;;;5009076;28;20399;-73
2023/04/06 03:09:01;;;;;;;;;;;19.20;38.20;;;;;;5009326;28;19969;-73
2023/04/06 03:11:27;;;;;;;;;;;19.10;38.10;;;;;;4994858;28;19929;-73
2023/04/06 03:13:52;;;;;;;;;;;19.10;38.00;;;;;;5004016;28;19917;-73
2023/04/06 03:16:17;;;;;;;;;;;19.20;37.90;;;;;;4993858;28;20064;-73
2023/04/06 03:18:44;;;;;;;;;;;19.20;38.10;;;;;;5026667;28;19944;-73
2023/04/06 03:21:10;;;;;;;;;;;19.10;37.80;;;;;;4995472;28;19970;-73
2023/04/06 03:23:36;;;;;;;;;;;19.10;37.90;;;;;;5009355;28;20306;-73
2023/04/06 03:26:01;;;;;;;;;;;19.10;37.90;;;;;;5009000;28;20425;-74
2023/04/06 03:28:27;;;;;;;;;;;19.10;37.80;;;;;;5009160;28;19917;-73
2023/04/06 03:30:52;;;;;;;;;;;19.00;37.70;;;;;;5009585;28;20256;-73
2023/04/06 03:33:18;;;;;;;;;;;19.10;37.80;;;;;;5020970;27;19942;-73
2023/04/06 03:35:43;;;;;;;;;;;19.10;37.90;;;;;;5000987;28;19971;-73
2023/04/06 03:38:09;;;;;;;;;;;19.10;37.90;;;;;;4992914;28;19913;-73
2023/04/06 03:40:34;;;;;;;;;;;19.00;37.80;;;;;;5028735;28;20012;-73
2023/04/06 03:43:00;;;;;;;;;;;19.00;37.90;;;;;;5000480;28;19909;-73
2023/04/06 03:45:25;;;;;;;;;;;19.00;38.00;;;;;;5009654;28;19963;-74
2023/04/06 03:47:51;;;;;;;;;;;19.00;38.60;;;;;;5003986;28;19913;-73
2023/04/06 03:50:16;;;;;;;;;;;19.00;38.10;;;;;;5038635;28;19924;-73
2023/04/06 03:52:42;;;;;;;;;;;19.00;38.00;;;;;;5030120;28;19982;-73
2023/04/06 03:55:07;;;;;;;;;;;19.00;38.00;;;;;;5027705;28;19917;-73
2023/04/06 03:57:33;;;;;;;;;;;19.00;38.10;;;;;;5028738;28;19917;-73
2023/04/06 03:59:58;;;;;;;;;;;19.00;38.10;;;;;;5015820;28;20377;-73
2023/04/06 04:02:24;;;;;;;;;;;19.00;38.10;;;;;;5006478;28;19918;-73
2023/04/06 04:04:49;;;;;;;;;;;19.00;38.10;;;;;;5005915;28;19916;-73
2023/04/06 04:07:15;;;;;;;;;;;19.00;38.00;;;;;;5026271;28;20294;-73
2023/04/06 04:09:40;;;;;;;;;;;19.00;38.00;;;;;;5021704;28;19966;-73
2023/04/06 04:12:06;;;;;;;;;;;19.00;37.90;;;;;;5007282;28;19929;-73
2023/04/06 04:14:31;;;;;;;;;;;19.00;37.90;;;;;;5007094;28;20000;-73
2023/04/06 04:16:56;;;;;;;;;;;19.10;38.00;;;;;;5009951;28;20290;-73
2023/04/06 04:19:22;;;;;;;;;;;19.10;37.90;;;;;;4993013;28;19927;-73
2023/04/06 04:21:47;;;;;;;;;;;19.10;37.60;;;;;;4994137;28;19914;-73
2023/04/06 04:24:13;;;;;;;;;;;19.10;37.60;;;;;;5017723;28;20375;-73
2023/04/06 04:26:38;;;;;;;;;;;19.10;37.60;;;;;;5000355;28;19913;-73
2023/04/06 04:29:04;;;;;;;;;;;19.10;37.70;;;;;;4999184;28;19971;-73
2023/04/06 04:31:29;;;;;;;;;;;19.10;37.60;;;;;;5006847;28;19914;-73
2023/04/06 04:33:55;;;;;;;;;;;19.10;37.60;;;;;;5018563;28;19964;-73
2023/04/06 04:36:20;;;;;;;;;;;19.20;37.70;;;;;;4992036;28;19909;-73
2023/04/06 04:38:46;;;;;;;;;;;19.00;37.60;;;;;;5007150;28;20287;-73
2023/04/06 04:41:11;;;;;;;;;;;19.00;37.80;;;;;;5007239;28;19913;-73
2023/04/06 04:43:37;;;;;;;;;;;19.00;37.80;;;;;;5017015;28;19917;-73
2023/04/06 04:46:04;;;;;;;;;;;19.00;37.80;;;;;;5027481;28;20031;-74
2023/04/06 04:48:29;;;;;;;;;;;19.00;37.90;;;;;;5008917;28;19918;-72
2023/04/06 04:50:55;;;;;;;;;;;18.90;37.70;;;;;;5007828;28;20275;-73
2023/04/06 04:53:20;;;;;;;;;;;18.90;37.90;;;;;;5018559;28;19914;-73
2023/04/06 04:55:46;;;;;;;;;;;18.90;37.90;;;;;;5006105;28;19913;-73
2023/04/06 04:58:15;;;;;;;;;;;18.90;38.00;;;;;;4992444;28;20529;-73
2023/04/06 05:00:40;;;;;;;;;;;18.90;37.90;;;;;;5006516;28;19914;-73
2023/04/06 05:03:06;;;;;;;;;;;18.90;37.90;;;;;;4999140;28;19924;-73
2023/04/06 05:05:31;;;;;;;;;;;18.90;37.80;;;;;;4991430;28;19924;-74
2023/04/06 05:07:57;;;;;;;;;;;18.90;37.80;;;;;;5007955;28;19925;-74
2023/04/06 05:10:22;;;;;;;;;;;18.90;37.70;;;;;;5008100;28;19929;-73
2023/04/06 05:12:47;;;;;;;;;;;18.90;37.80;;;;;;5002944;28;19929;-73
2023/04/06 05:15:13;;;;;;;;;;;18.90;37.80;;;;;;4994418;28;19949;-73
2023/04/06 05:17:38;;;;;;;;;;;18.90;37.80;;;;;;5008045;28;19932;-73
2023/04/06 05:20:05;;;;;;;;;;;18.90;37.80;;;;;;5007259;28;20008;-73
2023/04/06 05:22:30;;;;;;;;;;;18.90;37.70;;;;;;5007366;28;19963;-74
2023/04/06 05:24:56;;;;;;;;;;;18.90;37.70;;;;;;5010118;28;19921;-73
2023/04/06 05:27:21;;;;;;;;;;;19.00;37.70;;;;;;4996496;28;19964;-73
2023/04/06 05:29:47;;;;;;;;;;;18.90;37.70;;;;;;5002492;28;19924;-73
2023/04/06 05:32:12;;;;;;;;;;;18.90;37.80;;;;;;5052813;28;20038;-73
2023/04/06 05:34:37;;;;;;;;;;;18.80;37.70;;;;;;4997897;28;20451;-73
2023/04/06 05:37:03;;;;;;;;;;;18.80;37.90;;;;;;5010359;28;19914;-73
2023/04/06 05:39:28;;;;;;;;;;;18.80;37.80;;;;;;5010276;28;19959;-73
2023/04/06 05:41:54;;;;;;;;;;;18.80;37.80;;;;;;5011050;28;19920;-73
2023/04/06 05:44:20;;;;;;;;;;;18.90;37.80;;;;;;5002522;28;19952;-73
2023/04/06 05:46:45;;;;;;;;;;;18.90;37.80;;;;;;5015247;28;20371;-73
2023/04/06 05:49:12;;;;;;;;;;;18.90;37.80;;;;;;5014994;28;19914;-72
2023/04/06 05:51:37;;;;;;;;;;;18.90;37.90;;;;;;5013597;28;20242;-72
2023/04/06 05:54:03;;;;;;;;;;;18.90;38.30;;;;;;5008034;28;19918;-72
2023/04/06 05:56:30;;;;;;;;;;;18.90;37.80;;;;;;5017963;28;21494;-73
2023/04/06 05:58:55;;;;;;;;;;;18.90;37.80;;;;;;5010258;28;19922;-73
2023/04/06 06:01:20;;;;;;;;;;;18.90;38.00;;;;;;5009408;28;19915;-73
2023/04/06 06:03:46;;;;;;;;;;;18.90;37.80;;;;;;5019401;28;19997;-73
2023/04/06 06:06:11;;;;;;;;;;;18.90;38.00;;;;;;4994053;28;19917;-73
2023/04/06 06:08:37;;;;;;;;;;;18.90;37.80;;;;;;5021850;28;19949;-73
2023/04/06 06:11:03;;;;;;;;;;;19.10;38.00;;;;;;5011109;28;20413;-73
2023/04/06 06:13:28;;;;;;;;;;;18.90;37.80;;;;;;5013701;28;20340;-73
2023/04/06 06:15:53;;;;;;;;;;;18.90;37.70;;;;;;5009398;28;19949;-73
2023/04/06 06:18:21;;;;;;;;;;;18.90;37.70;;;;;;5011273;28;22365;-73
2023/04/06 06:20:46;;;;;;;;;;;19.00;37.80;;;;;;4997630;28;20060;-73
2023/04/06 06:23:12;;;;;;;;;;;19.00;37.80;;;;;;5041396;28;19917;-73
2023/04/06 06:25:37;;;;;;;;;;;19.00;37.70;;;;;;5020331;28;19963;-73
2023/04/06 06:28:02;;;;;;;;;;;18.90;37.60;;;;;;5005943;28;19913;-73
2023/04/06 06:30:28;;;;;;;;;;;18.90;37.70;;;;;;5002280;28;19960;-73
2023/04/06 06:32:53;;;;;;;;;;;18.90;37.60;;;;;;5011944;27;19918;-73
2023/04/06 06:35:19;;;;;;;;;;;18.90;37.70;;;;;;5019501;28;19999;-73
2023/04/06 06:37:44;;;;;;;;;;;18.90;37.70;;;;;;5005342;28;19913;-73
2023/04/06 06:40:12;;;;;;;;;;;18.90;37.70;;;;;;5014622;28;19983;-74
2023/04/06 06:42:38;;;;;;;;;;;18.90;37.70;;;;;;5003709;28;20012;-74
2023/04/06 06:45:04;;;;;;;;;;;18.90;38.00;;;;;;5021451;28;20011;-74
2023/04/06 06:47:29;;;;;;;;;;;18.90;37.90;;;;;;5005283;28;19914;-74
2023/04/06 06:49:55;;;;;;;;;;;18.90;38.00;;;;;;5007451;28;20011;-75
2023/04/06 06:52:21;;;;;;;;;;;18.90;38.00;;;;;;5040696;28;19913;-74
2023/04/06 06:54:46;;;;;;;;;;;19.00;38.00;;;;;;5008985;28;19940;-73
2023/04/06 06:57:12;;;;;;;;;;;18.90;38.00;;;;;;4996704;28;19917;-73
2023/04/06 06:59:37;;;;;;;;;;;18.90;38.10;;;;;;5008747;28;19918;-73
2023/04/06 07:02:03;;;;;;;;;;;18.90;38.10;;;;;;5020077;28;20058;-73
2023/04/06 07:04:28;;;;;;;;;;;18.90;38.30;;;;;;5013434;28;19917;-73
2023/04/06 07:06:54;;;;;;;;;;;18.80;38.20;;;;;;5024845;28;20006;-73
2023/04/06 07:09:19;;;;;;;;;;;18.80;38.30;;;;;;5020824;28;19920;-73
2023/04/06 07:11:45;;;;;;;;;;;18.90;38.40;;;;;;4991100;28;19936;-73
2023/04/06 07:14:11;;;;;;;;;;;18.90;38.20;;;;;;5022120;28;19917;-73
2023/04/06 07:16:36;;;;;;;;;;;19.00;38.60;;;;;;5019293;28;20004;-73
2023/04/06 07:19:02;;;;;;;;;;;18.90;38.80;;;;;;5016529;28;20372;-73
2023/04/06 07:21:27;;;;;;;;;;;18.90;38.90;;;;;;5013430;28;19967;-73
2023/04/06 07:23:53;;;;;;;;;;;18.90;39.30;;;;;;5001134;28;19927;-73
2023/04/06 07:26:18;;;;;;;;;;;19.00;39.00;;;;;;5021025;27;19917;-73
2023/04/06 07:28:44;;;;;;;;;;;19.00;39.10;;;;;;5001644;28;19917;-74
2023/04/06 07:31:09;;;;;;;;;;;19.10;39.40;;;;;;5001949;28;19996;-74
2023/04/06 07:33:35;;;;;;;;;;;19.60;39.10;;;;;;5016352;28;19917;-74
2023/04/06 07:36:00;;;;;;;;;;;20.40;38.00;;;;;;5016811;28;19909;-74
2023/04/06 07:38:26;;;;;;;;;;;20.90;37.40;;;;;;5021200;28;19924;-74
2023/04/06 07:40:51;;;;;;;;;;;21.10;37.10;;;;;;5004899;28;20041;-74
2023/04/06 07:43:17;;;;;;;;;;;21.20;36.90;;;;;;5025347;28;20023;-73
2023/04/06 07:45:42;;;;;;;;;;;21.30;36.80;;;;;;5022250;28;19935;-73
2023/04/06 07:48:07;;;;;;;;;;;21.50;36.50;;;;;;5004721;28;19917;-73
2023/04/06 07:50:33;;;;;;;;;;;21.50;36.50;;;;;;4996877;28;19909;-73
2023/04/06 07:52:59;;;;;;;;;;;21.50;36.50;;;;;;5008962;28;20005;-74
2023/04/06 07:55:25;;;;;;;;;;;21.40;36.80;;;;;;5015681;28;20270;-73
2023/04/06 07:57:50;;;;;;;;;;;21.10;37.00;;;;;;5023123;28;19913;-73
2023/04/06 08:00:16;;;;;;;;;;;21.00;37.20;;;;;;5020341;28;20403;-73
2023/04/06 08:02:41;;;;;;;;;;;20.80;37.80;;;;;;5013124;28;20370;-74
2023/04/06 08:05:07;;;;;;;;;;;20.70;38.10;;;;;;5025890;28;20305;-73
2023/04/06 08:07:32;;;;;;;;;;;20.60;38.20;;;;;;5023121;27;20031;-74
2023/04/06 08:09:58;;;;;;;;;;;20.50;38.60;;;;;;5025275;28;19941;-73
2023/04/06 08:12:23;;;;;;;;;;;20.40;38.80;;;;;;5006510;28;19944;-72
2023/04/06 08:14:49;;;;;;;;;;;20.30;39.00;;;;;;5002937;28;20501;-72
2023/04/06 08:17:14;;;;;;;;;;;20.20;39.20;;;;;;5014094;28;19917;-74
2023/04/06 08:19:41;;;;;;;;;;;20.10;39.20;;;;;;5014768;28;19949;-72
2023/04/06 08:22:07;;;;;;;;;;;20.10;39.30;;;;;;5000432;28;19963;-72
2023/04/06 08:24:33;;;;;;;;;;;20.10;39.10;;;;;;4997145;28;19941;-72
2023/04/06 08:26:58;;;;;;;;;;;20.10;39.30;;;;;;5023665;28;19932;-72
2023/04/06 08:29:24;;;;;;;;;;;20.10;39.20;;;;;;4998850;28;19913;-73
2023/04/06 08:31:49;;;;;;;;;;;20.10;39.00;;;;;;5004292;28;19962;-74
2023/04/06 08:34:15;;;;;;;;;;;20.10;39.30;;;;;;5008692;28;19958;-74
2023/04/06 08:36:41;;;;;;;;;;;20.10;38.90;;;;;;5010624;28;20012;-74
2023/04/06 08:39:06;;;;;;;;;;;20.10;38.70;;;;;;5020741;28;19924;-74
2023/04/06 08:41:32;;;;;;;;;;;20.10;38.80;;;;;;5022214;28;19917;-73
2023/04/06 08:43:58;;;;;;;;;;;20.10;38.90;;;;;;5025482;28;20401;-75
2023/04/06 08:46:29;;;;;;;;;;;20.10;38.80;;;;;;4999165;28;19913;-74
2023/04/06 08:48:55;;;;;;;;;;;20.10;39.00;;;;;;5022437;28;19910;-74
2023/04/06 08:51:20;;;;;;;;;;;20.10;39.00;;;;;;5007823;28;19917;-74
2023/04/06 08:53:46;;;;;;;;;;;20.20;39.00;;;;;;5012354;28;19913;-74
2023/04/06 08:56:11;;;;;;;;;;;20.10;38.90;;;;;;5006062;28;19914;-74
2023/04/06 08:58:38;;;;;;;;;;;20.10;38.90;;;;;;4999162;28;20362;-74
2023/04/06 09:01:06;;;;;;;;;;;20.00;38.80;;;;;;5025740;27;19913;-73
2023/04/06 09:03:31;;;;;;;;;;;20.00;38.60;;;;;;5020108;28;20004;-73
2023/04/06 09:05:57;;;;;;;;;;;20.00;38.60;;;;;;5015218;28;20008;-73
2023/04/06 09:08:23;;;;;;;;;;;20.00;38.80;;;;;;5028819;28;20298;-73
2023/04/06 09:10:48;;;;;;;;;;;20.00;39.00;;;;;;5027963;28;19913;-73
2023/04/06 09:13:14;;;;;;;;;;;20.10;38.80;;;;;;5021673;28;19925;-73
2023/04/06 09:15:39;;;;;;;;;;;20.10;38.90;;;;;;5016607;28;20305;-74
2023/04/06 09:18:05;;;;;;;;;;;20.10;39.00;;;;;;5014706;28;19917;-73
2023/04/06 09:20:31;;;;;;;;;;;20.10;38.80;;;;;;5009773;28;19971;-74
2023/04/06 09:22:56;;;;;;;;;;;20.10;38.70;;;;;;5007083;28;19952;-73
2023/04/06 09:25:28;;;;;;;;;;;20.00;38.80;;;;;;5016416;28;20389;-74
2023/04/06 09:28:00;;;;;;;;;;;20.10;39.00;;;;;;5020739;27;19913;-74
2023/04/06 09:30:26;;;;;;;;;;;20.10;38.70;;;;;;5014431;28;19913;-73
2023/04/06 09:32:55;;;;;;;;;;;20.10;39.10;;;;;;5017619;27;19924;-73
2023/04/06 09:35:21;;;;;;;;;;;20.30;39.40;;;;;;5014211;28;19920;-73
2023/04/06 09:37:47;;;;;;;;;;;20.90;38.30;;;;;;5013632;28;19917;-74
2023/04/06 09:40:13;;;;;;;;;;;21.30;37.40;;;;;;5012717;28;19923;-74
2023/04/06 09:42:40;;;;;;;;;;;21.50;36.80;;;;;;5018646;28;19917;-74
2023/04/06 09:45:06;;;;;;;;;;;21.60;36.80;;;;;;5019220;28;20016;-74
2023/04/06 09:47:32;;;;;;;;;;;21.50;37.10;;;;;;5007913;28;20060;-74
2023/04/06 09:49:58;;;;;;;;;;;21.40;37.30;;;;;;5030765;28;19920;-74
2023/04/06 09:52:26;;;;;;;;;;;21.30;37.50;;;;;;5007485;28;19914;-74
2023/04/06 09:54:51;;;;;;;;;;;21.20;37.70;;;;;;5005041;28;20000;-75
2023/04/06 09:57:16;;;;;;;;;;;21.10;37.80;;;;;;5010687;28;20039;-74
2023/04/06 09:59:50;;;;;;;;;;;21.00;37.70;;;;;;5029086;28;19920;-75
2023/04/06 10:02:39;;;;;;;;;;;21.00;37.80;;;;;;5031618;28;19909;-74
2023/04/06 10:05:06;;;;;;;;;;;21.00;37.70;;;;;;5018002;28;19913;-74
2023/04/06 10:07:31;;;;;;;;;;;20.90;37.40;;;;;;5020135;28;19959;-74
2023/04/06 10:09:56;;;;;;;;;;;20.90;37.20;;;;;;5008944;28;20370;-74
2023/04/06 10:12:22;;;;;;;;;;;20.80;37.30;;;;;;5030875;27;20368;-75
2023/04/06 10:14:47;;;;;;;;;;;20.80;37.00;;;;;;5024870;28;19967;-75
2023/04/06 10:17:13;;;;;;;;;;;20.70;37.00;;;;;;5024224;28;20069;-75
2023/04/06 10:19:44;;;;;;;;;;;20.70;37.10;;;;;;5015303;28;19921;-74
2023/04/06 10:22:10;;;;;;;;;;;20.70;37.50;;;;;;5021855;28;19914;-74
2023/04/06 10:24:35;;;;;;;;;;;20.70;37.40;;;;;;5015991;28;19927;-74
2023/04/06 10:27:01;;;;;;;;;;;20.60;37.40;;;;;;5008312;28;20001;-74
2023/04/06 10:29:27;;;;;;;;;;;20.60;37.20;;;;;;5024668;28;19920;-74
2023/04/06 10:31:52;;;;;;;;;;;20.60;37.30;;;;;;5005394;28;20368;-73
2023/04/06 10:34:18;;;;;;;;;;;20.50;37.10;;;;;;4999131;28;19925;-73
2023/04/06 10:36:43;;;;;;;;;;;20.60;37.30;;;;;;5021419;28;19913;-73
2023/04/06 10:39:09;;;;;;;;;;;20.60;37.10;;;;;;5009283;28;19921;-73
2023/04/06 10:41:41;;;;;;;;;;;20.60;37.10;;;;;;5042262;28;19915;-73
2023/04/06 10:44:06;;;;;;;;;;;20.60;37.40;;;;;;5015195;28;19931;-73
2023/04/06 10:46:32;;;;;;;;;;;20.60;37.20;;;;;;5010117;28;19917;-74
2023/04/06 10:48:58;;;;;;;;;;;20.60;37.20;;;;;;5008310;28;19960;-74
2023/04/06 10:51:27;;;;;;;;;;;20.60;37.30;;;;;;5015734;28;19920;-73
2023/04/06 10:53:53;;;;;;;;;;;20.60;37.10;;;;;;5009372;28;19967;-74
2023/04/06 10:56:20;;;;;;;;;;;20.60;37.00;;;;;;5000401;28;19917;-74
2023/04/06 10:58:46;;;;;;;;;;;20.60;37.10;;;;;;5026030;28;19914;-73
2023/04/06 11:01:12;;;;;;;;;;;20.50;37.30;;;;;;5024119;28;19913;-74
2023/04/06 11:03:44;;;;;;;;;;;20.60;37.40;;;;;;5010770;28;19971;-73
2023/04/06 11:06:10;;;;;;;;;;;20.60;37.30;;;;;;5032195;28;20338;-73
2023/04/06 11:08:37;;;;;;;;;;;20.60;37.10;;;;;;5022772;28;19999;-73
2023/04/06 11:11:06;;;;;;;;;;;20.60;37.10;;;;;;5009473;28;19919;-73
2023/04/06 11:13:57;;;;;;;;;;;20.60;37.70;;;;;;5026069;28;20012;-74
2023/04/06 11:16:24;;;;;;;;;;;20.60;37.00;;;;;;5015186;28;19921;-74
2023/04/06 11:19:02;;;;;;;;;;;20.70;37.00;;;;;;5016904;28;20336;-74
2023/04/06 11:21:39;;;;;;;;;;;20.70;36.90;;;;;;5024590;28;20359;-74
2023/04/06 11:24:05;;;;;;;;;;;20.70;37.00;;;;;;4998083;28;20358;-74
2023/04/06 11:26:31;;;;;;;;;;;20.70;37.20;;;;;;5007277;28;19917;-74
2023/04/06 11:28:56;;;;;;;;;;;20.70;37.40;;;;;;5017634;28;19922;-74
2023/04/06 11:31:25;;;;;;;;;;;20.70;37.40;;;;;;5010082;28;20400;-74
2023/04/06 11:33:55;;;;;;;;;;;20.70;37.40;;;;;;5006832;28;20381;-74
2023/04/06 11:36:20;;;;;;;;;;;20.70;37.40;;;;;;5020301;28;19959;-75
2023/04/06 11:38:46;;;;;;;;;;;20.70;37.40;;;;;;5004073;28;19965;-75
2023/04/06 11:41:11;;;;;;;;;;;20.70;37.40;;;;;;5007816;28;19910;-74
2023/04/06 11:43:36;;;;;;;;;;;20.80;37.30;;;;;;5005865;28;20038;-75
2023/04/06 11:46:02;;;;;;;;;;;20.80;37.20;;;;;;5005666;28;19962;-75
2023/04/06 11:48:28;;;;;;;;;;;20.90;37.10;;;;;;5031324;28;19920;-75
2023/04/06 11:51:00;;;;;;;;;;;20.90;37.00;;;;;;5025347;28;19913;-75
2023/04/06 11:53:27;;;;;;;;;;;21.00;37.00;;;;;;5011601;28;19970;-75
2023/04/06 11:55:52;;;;;;;;;;;21.00;36.80;;;;;;5014969;28;19912;-75
2023/04/06 11:58:18;;;;;;;;;;;21.00;37.00;;;;;;5019059;28;19917;-74
2023/04/06 12:00:45;;;;;;;;;;;21.00;36.90;;;;;;5005193;28;20286;-74
2023/04/06 12:03:13;;;;;;;;;;;21.00;37.00;;;;;;5005741;28;20290;-75
2023/04/06 12:05:39;;;;;;;;;;;21.10;37.10;;;;;;5010887;28;19910;-75
2023/04/06 12:08:05;;;;;;;;;;;21.10;36.90;;;;;;5004521;28;19914;-73
2023/04/06 12:10:30;;;;;;;;;;;21.10;36.90;;;;;;5001394;28;20401;-73
2023/04/06 12:12:55;;;;;;;;;;;21.00;36.60;;;;;;5013148;28;19926;-73
2023/04/06 12:15:21;;;;;;;;;;;21.10;36.60;;;;;;5022321;28;19919;-74
2023/04/06 12:17:47;;;;;;;;;;;21.20;36.60;;;;;;5008654;28;19928;-74
2023/04/06 12:20:13;;;;;;;;;;;21.20;36.90;;;;;;5002245;28;19917;-74
2023/04/06 12:22:38;;;;;;;;;;;21.10;36.40;;;;;;4998738;28;19920;-74
2023/04/06 12:25:04;;;;;;;;;;;21.10;36.80;;;;;;5004991;28;19913;-73
2023/04/06 12:27:30;;;;;;;;;;;21.00;36.80;;;;;;5001601;28;19984;-74
2023/04/06 12:29:55;;;;;;;;;;;21.00;36.70;;;;;;5020214;28;19958;-74
2023/04/06 12:32:21;;;;;;;;;;;21.00;36.70;;;;;;5009966;28;19914;-74
2023/04/06 12:34:46;;;;;;;;;;;21.00;36.60;;;;;;5057883;28;20020;-73
2023/04/06 12:37:12;;;;;;;;;;;21.00;36.50;;;;;;5027818;28;19936;-74
2023/04/06 12:39:37;;;;;;;;;;;21.00;36.60;;;;;;5012560;28;19933;-74
2023/04/06 12:42:03;;;;;;;;;;;21.10;36.60;;;;;;5025608;28;19917;-74
2023/04/06 12:44:28;;;;;;;;;;;21.10;36.50;;;;;;5010940;28;20063;-74
2023/04/06 12:46:55;;;;;;;;;;;21.10;36.50;;;;;;5015518;28;20364;-74
2023/04/06 12:49:21;;;;;;;;;;;21.00;36.70;;;;;;5026425;28;19920;-74
2023/04/06 12:51:47;;;;;;;;;;;21.00;36.70;;;;;;5027211;28;19917;-74
2023/04/06 12:54:12;;;;;;;;;;;21.00;36.80;;;;;;5017249;28;20535;-74
2023/04/06 12:56:38;;;;;;;;;;;21.10;36.60;;;;;;5020881;28;19914;-75
2023/04/06 12:59:03;;;;;;;;;;;21.10;36.60;;;;;;5029766;28;19914;-75
2023/04/06 13:01:29;;;;;;;;;;;21.10;36.40;;;;;;5012870;28;19928;-75
2023/04/06 13:03:56;;;;;;;;;;;21.20;36.60;;;;;;5007601;28;19949;-75
2023/04/06 13:06:21;;;;;;;;;;;21.30;36.40;;;;;;5002090;28;19920;-75
2023/04/06 13:08:49;;;;;;;;;;;21.20;36.40;;;;;;5011266;28;19920;-75
2023/04/06 13:11:15;;;;;;;;;;;21.10;36.70;;;;;;5046109;28;20391;-74
2023/04/06 13:13:41;;;;;;;;;;;21.10;37.30;;;;;;5011174;28;19928;-75
2023/04/06 13:16:07;;;;;;;;;;;21.20;36.70;;;;;;5013947;28;20353;-75
2023/04/06 13:18:32;;;;;;;;;;;21.30;36.60;;;;;;5011505;28;20020;-75
2023/04/06 13:20:59;;;;;;;;;;;21.30;36.40;;;;;;5020762;28;20008;-75
2023/04/06 13:23:25;;;;;;;;;;;21.30;36.60;;;;;;5011394;28;19913;-75
2023/04/06 13:26:17;;;;;;;;;;;21.30;36.70;;;;;;5100023;28;19962;-74
2023/04/06 13:28:42;;;;;;;;;;;21.30;36.90;;;;;;5018170;28;19917;-74
2023/04/06 13:31:08;;;;;;;;;;;21.30;36.90;;;;;;5005624;28;19978;-74
2023/04/06 13:33:34;;;;;;;;;;;21.30;36.80;;;;;;5025761;28;19924;-74
2023/04/06 13:35:59;;;;;;;;;;;21.40;37.40;;;;;;5017124;28;19966;-74
2023/04/06 13:38:24;;;;;;;;;;;21.40;37.10;;;;;;5002359;28;19910;-74
2023/04/06 13:40:50;;;;;;;;;;;21.50;37.10;;;;;;4999932;28;20439;-74
2023/04/06 13:43:19;;;;;;;;;;;21.50;37.10;;;;;;5029363;28;20007;-74
2023/04/06 13:45:48;;;;;;;;;;;21.40;37.20;;;;;;5027515;28;20398;-74
2023/04/06 13:48:14;;;;;;;;;;;21.40;37.20;;;;;;5026366;28;19921;-74
2023/04/06 13:50:39;;;;;;;;;;;21.40;37.10;;;;;;5016596;28;19986;-73
2023/04/06 13:53:05;;;;;;;;;;;21.40;37.00;;;;;;5031584;28;20012;-73
2023/04/06 13:55:31;;;;;;;;;;;21.30;37.30;;;;;;5004733;28;19940;-74
2023/04/06 13:57:56;;;;;;;;;;;21.40;37.00;;;;;;5027261;28;19909;-73
2023/04/06 14:00:22;;;;;;;;;;;21.40;37.10;;;;;;5015114;28;19924;-74
2023/04/06 14:02:47;;;;;;;;;;;21.40;37.00;;;;;;5011495;28;20438;-74
2023/04/06 14:05:13;;;;;;;;;;;21.40;37.00;;;;;;5016230;28;20077;-74
2023/04/06 14:07:38;;;;;;;;;;;21.40;37.10;;;;;;5009802;28;19915;-74
2023/04/06 14:10:04;;;;;;;;;;;21.40;37.30;;;;;;5025553;28;19975;-74